Time;durP1;ratioP1;P1;durP2;ratioP2;P2;SDS_P1;SDS_P2;PMS_P1;PMS_P2;Temp;Humidity;BMP_temperature;BMP_pressure;BME280_temperature;BME280_humidity;BME280_pressure;Samples;Min_cycle;Max_cycle;Signal;HPM_P1;HPM_P2
2024/01/17 00:00:24;;;;;;;64.57;39.75;;;51.20;2227.20;;;;;;5081764;28;20090;-81
2024/01/17 00:02:50;;;;;;;89.95;52.50;;;51.30;2227.20;;;;;;5077220;28;20048;-77
2024/01/17 00:05:15;;;;;;;32.55;18.92;;;51.30;2227.20;;;;;;5074510;28;20112;-80
2024/01/17 00:07:41;;;;;;;29.15;19.65;;;51.20;2227.20;;;;;;5078212;28;20116;-77
2024/01/17 00:10:09;;;;;;;40.05;24.35;;;51.20;2227.20;;;;;;5077819;28;20537;-82
2024/01/17 00:12:34;;;;;;;82.25;48.42;;;51.20;2227.20;;;;;;5081227;28;20024;-78
2024/01/17 00:15:00;;;;;;;61.53;35.55;;;26.50;2201.60;;;;;;5078670;28;20381;-83
2024/01/17 00:17:26;;;;;;;26.42;15.90;;;26.30;2201.60;;;;;;5078544;28;20029;-80
2024/01/17 00:19:52;;;;;;;48.92;29.98;;;26.30;2201.60;;;;;;5075064;28;20116;-83
2024/01/17 00:22:18;;;;;;;76.57;45.80;;;26.00;2201.60;;;;;;5080950;28;20501;-79
2024/01/17 00:24:45;;;;;;;69.47;41.78;;;26.20;2201.60;;;;;;5081657;28;20162;-84
2024/01/17 00:27:13;;;;;;;226.80;127.38;;;26.40;2201.60;;;;;;5089692;28;20071;-89
2024/01/17 00:29:39;;;;;;;35.78;22.83;;;26.40;2201.60;;;;;;5088632;28;20027;-80
2024/01/17 00:32:05;;;;;;;36.70;21.13;;;26.10;2201.60;;;;;;5087721;28;20028;-84
2024/01/17 00:34:30;;;;;;;27.17;15.15;;;26.20;2201.60;;;;;;5090855;28;20100;-83
2024/01/17 00:36:56;;;;;;;38.42;23.08;;;26.10;2201.60;;;;;;5091433;28;20073;-83
2024/01/17 00:39:25;;;;;;;35.63;21.15;;;26.10;2201.60;;;;;;5090986;28;20089;-81
2024/01/17 00:41:51;;;;;;;32.88;19.77;;;26.30;2201.60;;;;;;5091006;28;20089;-82
2024/01/17 00:44:21;;;;;;;51.05;30.38;;;26.30;2201.60;;;;;;5090930;28;20020;-82
2024/01/17 00:46:47;;;;;;;34.05;21.77;;;26.30;2201.60;;;;;;5090758;28;20139;-83
2024/01/17 00:49:13;;;;;;;76.90;44.13;;;26.30;2201.60;;;;;;5090599;28;20099;-82
2024/01/17 00:51:39;;;;;;;113.75;66.32;;;26.40;2201.60;;;;;;5090849;28;20048;-83
2024/01/17 00:54:06;;;;;;;168.52;97.55;;;26.40;2201.60;;;;;;5077298;28;20028;-83
2024/01/17 00:56:35;;;;;;;173.82;97.60;;;26.50;2201.60;;;;;;5090570;28;20024;-81
2024/01/17 00:59:01;;;;;;;174.95;93.97;;;26.40;2201.60;;;;;;5090444;28;20024;-81
2024/01/17 01:01:27;;;;;;;132.40;71.88;;;26.50;2201.60;;;;;;5090014;28;20077;-81
2024/01/17 01:03:53;;;;;;;115.25;63.90;;;26.50;2201.60;;;;;;5090010;28;20052;-78
2024/01/17 01:06:19;;;;;;;97.55;56.35;;;26.50;2201.60;;;;;;5083091;28;20036;-83
2024/01/17 01:08:44;;;;;;;67.30;38.33;;;26.50;2201.60;;;;;;5069778;28;20089;-82
2024/01/17 01:11:10;;;;;;;61.42;34.60;;;26.50;2201.60;;;;;;5077504;28;20355;-84
2024/01/17 01:13:37;;;;;;;46.92;26.08;;;26.50;2201.60;;;;;;5090136;28;20069;-83
2024/01/17 01:16:03;;;;;;;59.00;29.50;;;26.50;2201.60;;;;;;5083282;28;20115;-85
2024/01/17 01:18:30;;;;;;;249.05;122.88;;;51.20;2227.20;;;;;;5069042;28;20029;-83
2024/01/17 01:20:57;;;;;;;66.22;37.28;;;26.50;2201.60;;;;;;5090612;28;20031;-83
2024/01/17 01:23:25;;;;;;;122.80;65.72;;;51.30;2227.20;;;;;;5090414;28;20097;-79
2024/01/17 01:25:51;;;;;;;58.28;33.90;;;51.30;2227.20;;;;;;5084766;28;20465;-82
2024/01/17 01:28:17;;;;;;;45.58;29.17;;;51.40;2227.20;;;;;;5080830;28;20113;-83
2024/01/17 01:30:42;;;;;;;37.78;23.80;;;51.50;2227.20;;;;;;5090002;28;20046;-82
2024/01/17 01:33:08;;;;;;;36.30;20.73;;;51.50;2227.20;;;;;;5088666;28;20086;-77
2024/01/17 01:35:34;;;;;;;54.30;30.48;;;51.50;2227.20;;;;;;5089805;28;20028;-81
2024/01/17 01:38:00;;;;;;;25.27;18.10;;;51.60;2227.20;;;;;;5077280;28;20067;-82
2024/01/17 01:40:25;;;;;;;28.10;17.70;;;51.50;2227.20;;;;;;5083418;28;20048;-81
2024/01/17 01:42:53;;;;;;;29.33;17.45;;;51.70;2227.20;;;;;;5082061;28;20024;-82
2024/01/17 01:45:19;;;;;;;141.52;75.57;;;51.60;2227.20;;;;;;5089572;28;20027;-78
2024/01/17 01:47:45;;;;;;;61.90;35.67;;;51.60;2227.20;;;;;;5076799;28;20496;-81
2024/01/17 01:50:11;;;;;;;20.38;12.95;;;51.60;2227.20;;;;;;5069408;28;20104;-82
2024/01/17 01:52:40;;;;;;;45.25;22.15;;;51.70;2227.20;;;;;;5082505;28;20107;-82
2024/01/17 01:55:07;;;;;;;16.23;11.07;;;51.80;2227.20;;;;;;5076076;28;20098;-81
2024/01/17 01:57:36;;;;;;;28.33;15.98;;;51.80;2227.20;;;;;;5076318;28;20036;-83
2024/01/17 02:00:04;;;;;;;57.72;32.33;;;51.80;2227.20;;;;;;5075773;28;20024;-83
2024/01/17 02:02:34;;;;;;;57.97;31.63;;;51.80;2227.20;;;;;;5088858;28;20056;-79
2024/01/17 02:05:03;;;;;;;31.92;17.30;;;52.00;2227.20;;;;;;5076612;28;20544;-80
2024/01/17 02:07:31;;;;;;;50.22;31.15;;;52.00;2227.20;;;;;;5086424;28;20036;-79
2024/01/17 02:09:56;;;;;;;58.03;37.40;;;52.00;2227.20;;;;;;5069309;28;20020;-81
2024/01/17 02:12:22;;;;;;;66.57;40.78;;;52.10;2227.20;;;;;;5084373;28;20347;-81
2024/01/17 02:14:48;;;;;;;64.28;38.28;;;76.80;2227.20;;;;;;5080744;28;20518;-78
2024/01/17 02:17:14;;;;;;;68.88;41.63;;;76.80;2227.20;;;;;;5084289;28;20032;-81
2024/01/17 02:19:44;;;;;;;39.42;25.20;;;76.90;2227.20;;;;;;5088351;28;20104;-82
2024/01/17 02:22:09;;;;;;;61.25;35.97;;;76.80;2227.20;;;;;;5073219;28;20016;-82
2024/01/17 02:24:35;;;;;;;65.00;36.67;;;76.90;2227.20;;;;;;5067958;28;20086;-80
2024/01/17 02:27:01;;;;;;;55.88;34.63;;;76.90;2227.20;;;;;;5081512;28;20063;-79
2024/01/17 02:29:28;;;;;;;45.80;25.85;;;76.90;2227.20;;;;;;5069002;28;20047;-81
2024/01/17 02:31:54;;;;;;;51.97;27.52;;;77.10;2227.20;;;;;;5069005;28;20058;-82
2024/01/17 02:34:20;;;;;;;37.65;22.65;;;77.20;2227.20;;;;;;5076081;28;20521;-83
2024/01/17 02:36:46;;;;;;;33.03;19.35;;;77.20;2227.20;;;;;;5089016;28;20068;-81
2024/01/17 02:39:12;;;;;;;25.27;15.27;;;77.20;2227.20;;;;;;5080290;28;20459;-81
2024/01/17 02:41:38;;;;;;;17.38;9.70;;;77.20;2227.20;;;;;;5082436;28;20027;-83
2024/01/17 02:44:04;;;;;;;126.53;89.70;;;77.10;2227.20;;;;;;5069005;28;20025;-83
2024/01/17 02:46:29;;;;;;;19.00;12.88;;;77.20;2227.20;;;;;;5083119;28;20048;-84
2024/01/17 02:48:55;;;;;;;16.25;8.95;;;76.80;2227.20;;;;;;5089325;28;20025;-80
2024/01/17 02:51:21;;;;;;;36.53;25.92;;;76.90;2227.20;;;;;;5073944;28;20339;-85
2024/01/17 02:53:47;;;;;;;23.05;12.38;;;77.00;2227.20;;;;;;5089289;28;20466;-82
2024/01/17 02:56:14;;;;;;;24.50;14.32;;;77.20;2227.20;;;;;;5085419;28;20051;-82
2024/01/17 02:58:40;;;;;;;53.15;31.50;;;77.30;2227.20;;;;;;5068531;28;20482;-83
2024/01/17 03:01:06;;;;;;;28.95;18.67;;;77.30;2227.20;;;;;;5083238;28;20051;-85
2024/01/17 03:03:32;;;;;;;77.75;40.58;;;77.30;2227.20;;;;;;5088406;28;20052;-83
2024/01/17 03:05:58;;;;;;;44.47;25.35;;;77.30;2227.20;;;;;;5088982;28;20083;-83
2024/01/17 03:08:24;;;;;;;32.33;19.05;;;77.40;2227.20;;;;;;5079711;28;20082;-76
2024/01/17 03:10:50;;;;;;;43.75;27.25;;;77.40;2227.20;;;;;;5071000;28;20488;-82
2024/01/17 03:13:15;;;;;;;52.80;27.95;;;77.30;2227.20;;;;;;5089141;28;20047;-83
2024/01/17 03:15:41;;;;;;;32.55;20.52;;;77.30;2227.20;;;;;;5085994;28;21190;-84
2024/01/17 03:18:13;;;;;;;27.45;16.52;;;77.40;2227.20;;;;;;5078218;28;20028;-79
2024/01/17 03:20:40;;;;;;;31.35;15.38;;;77.50;2227.20;;;;;;5075013;28;20069;-76
2024/01/17 03:23:06;;;;;;;29.60;19.00;;;77.50;2227.20;;;;;;5088852;28;20020;-83
2024/01/17 03:25:32;;;;;;;31.50;19.63;;;77.50;2227.20;;;;;;5088372;28;20119;-82
2024/01/17 03:27:58;;;;;;;29.08;17.40;;;77.60;2227.20;;;;;;5088799;28;20056;-83
2024/01/17 03:30:24;;;;;;;51.97;28.98;;;77.60;2227.20;;;;;;5085868;28;20408;-80
2024/01/17 03:32:49;;;;;;;88.03;45.35;;;77.50;2227.20;;;;;;5081449;28;20024;-75
2024/01/17 03:35:15;;;;;;;67.00;36.35;;;77.60;2227.20;;;;;;5091016;28;20500;-83
2024/01/17 03:37:41;;;;;;;36.88;22.70;;;77.60;2227.20;;;;;;5091223;28;20172;-82
2024/01/17 03:40:07;;;;;;;51.13;27.63;;;77.60;2227.20;;;;;;5090904;28;20056;-82
2024/01/17 03:42:33;;;;;;;38.00;19.55;;;77.40;2227.20;;;;;;5092203;28;20024;-83
2024/01/17 03:44:59;;;;;;;40.63;23.20;;;77.50;2227.20;;;;;;5091734;28;20012;-81
2024/01/17 03:47:25;;;;;;;55.33;32.53;;;77.70;2227.20;;;;;;5090336;28;20043;-83
2024/01/17 03:49:50;;;;;;;54.45;29.73;;;77.70;2227.20;;;;;;5091881;28;20050;-83
2024/01/17 03:52:16;;;;;;;44.15;26.48;;;77.40;2227.20;;;;;;5092251;28;20059;-83
2024/01/17 03:54:42;;;;;;;60.45;34.15;;;77.50;2227.20;;;;;;5078086;28;20016;-83
2024/01/17 03:57:10;;;;;;;37.78;21.40;;;77.50;2227.20;;;;;;5082099;28;20070;-83
2024/01/17 03:59:36;;;;;;;154.90;68.97;;;77.40;2227.20;;;;;;5071779;28;20020;-84
2024/01/17 04:02:02;;;;;;;112.55;49.72;;;77.50;2227.20;;;;;;5082209;28;20024;-83
2024/01/17 04:04:28;;;;;;;51.70;29.63;;;77.50;2227.20;;;;;;5091869;28;20076;-82
2024/01/17 04:06:55;;;;;;;96.50;53.33;;;77.50;2227.20;;;;;;5081459;28;20036;-81
2024/01/17 04:09:20;;;;;;;101.78;53.50;;;77.30;2227.20;;;;;;5072376;28;20045;-77
2024/01/17 04:11:46;;;;;;;116.22;69.35;;;77.40;2227.20;;;;;;5083047;28;20047;-81
2024/01/17 04:14:12;;;;;;;93.22;53.42;;;77.40;2227.20;;;;;;5084402;28;20390;-77
2024/01/17 04:16:39;;;;;;;70.18;41.10;;;77.50;2227.20;;;;;;5080236;28;20020;-81
2024/01/17 04:19:08;;;;;;;62.00;37.17;;;77.50;2227.20;;;;;;5077517;28;20086;-80
2024/01/17 04:21:34;;;;;;;60.45;40.35;;;77.40;2227.20;;;;;;5090197;28;20119;-80
2024/01/17 04:24:00;;;;;;;54.78;31.67;;;77.50;2227.20;;;;;;5075679;28;20119;-76
2024/01/17 04:26:26;;;;;;;105.60;46.42;;;77.50;2227.20;;;;;;5071309;28;20111;-80
2024/01/17 04:28:53;;;;;;;120.57;59.65;;;77.50;2227.20;;;;;;5087843;28;20085;-76
2024/01/17 04:31:29;;;;;;;94.35;49.83;;;77.60;2227.20;;;;;;5091023;28;20017;-72
2024/01/17 04:33:56;;;;;;;83.95;49.58;;;77.70;2227.20;;;;;;5090894;28;20024;-81
2024/01/17 04:36:26;;;;;;;92.28;56.80;;;77.60;2227.20;;;;;;5091068;28;20473;-80
2024/01/17 04:38:52;;;;;;;117.20;66.38;;;77.60;2227.20;;;;;;5090685;28;20019;-79
2024/01/17 04:41:18;;;;;;;97.47;54.10;;;77.60;2227.20;;;;;;5091076;28;20032;-76
2024/01/17 04:43:44;;;;;;;88.28;52.20;;;77.50;2227.20;;;;;;5089804;28;20442;-79
2024/01/17 04:46:15;;;;;;;80.93;48.97;;;77.60;2227.20;;;;;;5089270;28;20043;-82
2024/01/17 04:48:41;;;;;;;92.07;51.47;;;77.60;2227.20;;;;;;5083718;28;20074;-74
2024/01/17 04:51:09;;;;;;;53.35;35.63;;;77.70;2227.20;;;;;;5084398;28;20036;-78
2024/01/17 04:53:37;;;;;;;92.50;54.45;;;77.50;2227.20;;;;;;5083655;28;20138;-80
2024/01/17 04:56:05;;;;;;;44.35;27.80;;;77.50;2227.20;;;;;;5070823;28;20035;-78
2024/01/17 04:58:35;;;;;;;87.40;46.83;;;77.40;2227.20;;;;;;5090282;28;20371;-80
2024/01/17 05:01:01;;;;;;;59.92;36.88;;;77.60;2227.20;;;;;;5089038;28;20039;-81
2024/01/17 05:03:27;;;;;;;53.42;30.63;;;77.70;2227.20;;;;;;5081603;28;20048;-79
2024/01/17 05:05:53;;;;;;;63.03;34.05;;;77.70;2227.20;;;;;;5085597;28;20097;-80
2024/01/17 05:08:19;;;;;;;65.30;40.42;;;102.40;2227.20;;;;;;5090412;28;20028;-78
2024/01/17 05:10:45;;;;;;;57.10;38.63;;;102.40;2227.20;;;;;;5090510;28;20024;-80
2024/01/17 05:13:12;;;;;;;49.80;31.15;;;77.50;2227.20;;;;;;5090243;28;20031;-81
2024/01/17 05:15:39;;;;;;;56.38;31.40;;;77.50;2227.20;;;;;;5090103;28;20028;-81
2024/01/17 05:18:05;;;;;;;43.10;26.65;;;77.60;2227.20;;;;;;5090539;28;20440;-79
2024/01/17 05:20:32;;;;;;;49.10;30.10;;;77.50;2227.20;;;;;;5089609;28;20047;-73
2024/01/17 05:22:58;;;;;;;223.18;112.55;;;77.60;2227.20;;;;;;5080697;28;20362;-81
2024/01/17 05:25:24;;;;;;;188.32;91.82;;;77.70;2227.20;;;;;;5069966;28;20029;-81
2024/01/17 05:27:52;;;;;;;115.15;59.58;;;77.50;2227.20;;;;;;5070038;28;20032;-79
2024/01/17 05:30:24;;;;;;;59.03;33.83;;;77.50;2227.20;;;;;;5083455;28;20071;-78
2024/01/17 05:32:51;;;;;;;53.03;36.65;;;77.50;2227.20;;;;;;5077876;28;20052;-79
2024/01/17 05:35:17;;;;;;;42.83;28.45;;;77.40;2227.20;;;;;;5089791;28;20109;-77
2024/01/17 05:37:43;;;;;;;50.97;35.53;;;77.30;2227.20;;;;;;5089934;28;20434;-78
2024/01/17 05:40:13;;;;;;;52.22;30.85;;;77.30;2227.20;;;;;;5089660;28;20478;-73
2024/01/17 05:42:40;;;;;;;48.22;32.25;;;77.00;2227.20;;;;;;5090131;28;20098;-81
2024/01/17 05:45:10;;;;;;;49.72;30.88;;;77.10;2227.20;;;;;;5089481;28;20026;-80
2024/01/17 05:47:37;;;;;;;52.13;30.83;;;77.00;2227.20;;;;;;5078166;28;20033;-80
2024/01/17 05:50:08;;;;;;;57.97;35.53;;;77.00;2227.20;;;;;;5069043;28;20053;-80
2024/01/17 05:52:38;;;;;;;44.60;26.05;;;77.00;2227.20;;;;;;5082061;28;20028;-80
2024/01/17 05:55:05;;;;;;;42.00;25.30;;;77.00;2227.20;;;;;;5069491;28;20441;-79
2024/01/17 05:57:30;;;;;;;37.92;23.90;;;77.10;2227.20;;;;;;5069074;28;20498;-77
2024/01/17 05:59:56;;;;;;;45.03;27.02;;;77.10;2227.20;;;;;;5067946;28;20036;-80
2024/01/17 06:02:22;;;;;;;64.57;38.38;;;77.20;2227.20;;;;;;5068789;28;20044;-73
2024/01/17 06:04:47;;;;;;;69.10;42.97;;;77.30;2227.20;;;;;;5089142;28;20039;-80
2024/01/17 06:07:14;;;;;;;38.97;24.98;;;77.30;2227.20;;;;;;5082566;28;20045;-79
2024/01/17 06:09:42;;;;;;;57.67;35.88;;;77.30;2227.20;;;;;;5081272;28;20032;-80
2024/01/17 06:12:08;;;;;;;90.80;53.78;;;77.20;2227.20;;;;;;5089273;28;20024;-71
2024/01/17 06:14:33;;;;;;;68.22;47.05;;;77.10;2227.20;;;;;;5088988;28;20031;-76
2024/01/17 06:16:59;;;;;;;60.83;38.35;;;77.00;2227.20;;;;;;5088227;28;20028;-80
2024/01/17 06:19:25;;;;;;;51.15;34.65;;;77.00;2227.20;;;;;;5089003;28;20069;-80
2024/01/17 06:21:51;;;;;;;138.43;80.03;;;77.00;2227.20;;;;;;5089138;28;20028;-79
2024/01/17 06:24:16;;;;;;;133.93;77.30;;;76.80;2227.20;;;;;;5089064;28;20024;-79
2024/01/17 06:26:42;;;;;;;120.63;80.30;;;76.90;2227.20;;;;;;5089063;28;20043;-79
2024/01/17 06:29:09;;;;;;;115.68;74.45;;;76.80;2227.20;;;;;;5088670;28;20024;-75
2024/01/17 06:31:35;;;;;;;63.75;39.88;;;76.90;2227.20;;;;;;5089272;28;20020;-80
2024/01/17 06:34:01;;;;;;;63.72;42.38;;;77.00;2227.20;;;;;;5088763;28;20024;-81
2024/01/17 06:36:27;;;;;;;51.22;32.70;;;77.20;2227.20;;;;;;5076852;28;20032;-80
2024/01/17 06:38:53;;;;;;;51.92;32.55;;;77.30;2227.20;;;;;;5087860;28;20024;-80
2024/01/17 06:41:18;;;;;;;52.45;34.22;;;77.30;2227.20;;;;;;5089107;28;20024;-79
2024/01/17 06:43:46;;;;;;;53.55;38.13;;;77.40;2227.20;;;;;;5088817;28;20016;-78
2024/01/17 06:46:12;;;;;;;178.80;98.03;;;77.40;2227.20;;;;;;5088708;28;20036;-80
2024/01/17 06:48:37;;;;;;;93.68;50.47;;;77.40;2227.20;;;;;;5087489;28;20021;-81
2024/01/17 06:51:04;;;;;;;73.28;43.47;;;77.40;2227.20;;;;;;5076351;28;20044;-78
2024/01/17 06:53:34;;;;;;;48.95;31.52;;;77.50;2227.20;;;;;;5074380;28;20051;-80
2024/01/17 06:55:59;;;;;;;48.33;28.38;;;77.60;2227.20;;;;;;5087531;28;20538;-80
2024/01/17 06:58:25;;;;;;;41.67;26.35;;;77.70;2227.20;;;;;;5089033;28;20024;-81
2024/01/17 07:00:51;;;;;;;34.50;22.33;;;102.40;2227.20;;;;;;5089017;28;20509;-78
2024/01/17 07:03:17;;;;;;;28.67;21.75;;;102.60;2227.20;;;;;;5083152;28;20043;-80
2024/01/17 07:05:43;;;;;;;37.72;23.00;;;102.70;2227.20;;;;;;5080581;28;20043;-79
2024/01/17 07:08:08;;;;;;;36.63;22.77;;;102.90;2227.20;;;;;;5092785;28;20034;-80
2024/01/17 07:10:36;;;;;;;83.55;50.22;;;103.00;2227.20;;;;;;5091443;28;20040;-80
2024/01/17 07:13:02;;;;;;;61.13;36.75;;;103.20;2227.20;;;;;;5092468;28;20103;-77
2024/01/17 07:15:28;;;;;;;57.55;34.25;;;103.30;2227.20;;;;;;5092644;28;20024;-75
2024/01/17 07:17:53;;;;;;;55.63;38.08;;;103.30;2227.20;;;;;;5092819;28;20017;-78
2024/01/17 07:20:19;;;;;;;106.53;71.35;;;128.00;2252.80;;;;;;5090989;28;20036;-80
2024/01/17 07:22:45;;;;;;;57.95;42.00;;;128.00;2252.80;;;;;;5092680;28;20016;-82
2024/01/17 07:25:15;;;;;;;74.97;50.35;;;128.20;2252.80;;;;;;5091052;28;20032;-79
2024/01/17 07:27:43;;;;;;;153.60;94.80;;;128.10;2252.80;;;;;;5092252;28;20381;-79
2024/01/17 07:30:11;;;;;;;465.75;302.85;;;128.00;2252.80;;;;;;5092246;28;20023;-73
2024/01/17 07:32:38;;;;;;;228.57;149.57;;;103.10;2227.20;;;;;;5092278;28;20024;-77
2024/01/17 07:35:04;;;;;;;176.63;111.70;;;128.00;2252.80;;;;;;5092368;28;20023;-81
2024/01/17 07:37:31;;;;;;;172.57;109.55;;;103.20;2227.20;;;;;;5083023;28;20025;-78
2024/01/17 07:39:57;;;;;;;213.15;125.97;;;103.10;2227.20;;;;;;5073042;28;20024;-74
2024/01/17 07:42:23;;;;;;;268.55;155.93;;;103.00;2227.20;;;;;;5092054;28;20485;-80
2024/01/17 07:44:49;;;;;;;103.88;62.20;;;103.20;2227.20;;;;;;5091885;28;20023;-79
2024/01/17 07:47:15;;;;;;;106.10;59.60;;;103.10;2227.20;;;;;;5091861;28;20032;-81
2024/01/17 07:49:42;;;;;;;93.03;60.22;;;103.20;2227.20;;;;;;5091604;28;20032;-82
2024/01/17 07:52:07;;;;;;;934.10;490.55;;;103.20;2227.20;;;;;;5092441;28;20035;-79
2024/01/17 07:54:33;;;;;;;185.20;116.82;;;128.40;2252.80;;;;;;5091746;28;20028;-80
2024/01/17 07:56:59;;;;;;;343.13;213.63;;;128.00;2252.80;;;;;;5091829;28;20111;-80
2024/01/17 07:59:27;;;;;;;211.50;135.18;;;128.60;2252.80;;;;;;5091868;28;20024;-80
2024/01/17 08:01:54;;;;;;;245.35;160.25;;;128.90;2252.80;;;;;;5090517;28;20026;-76
2024/01/17 08:04:20;;;;;;;230.00;155.50;;;153.90;2252.80;;;;;;5091077;28;20044;-77
2024/01/17 08:06:46;;;;;;;347.60;222.70;;;154.40;2252.80;;;;;;5082654;28;20486;-80
2024/01/17 08:09:20;;;;;;;368.45;231.98;;;179.40;2252.80;;;;;;5084985;28;20023;-79
2024/01/17 08:11:57;;;;;;;163.77;111.78;;;179.60;2252.80;;;;;;5071553;28;20446;-82
2024/01/17 08:14:24;;;;;;;190.52;125.80;;;205.50;2252.80;;;;;;5076415;28;20016;-80
2024/01/17 08:16:53;;;;;;;138.77;102.38;;;230.90;2252.80;;;;;;5091086;28;20044;-79
2024/01/17 08:19:19;;;;;;;225.55;170.52;;;256.30;2252.80;;;;;;5090203;28;20104;-78
2024/01/17 08:21:49;;;;;;;187.95;143.23;;;282.10;2227.20;;;;;;5090187;28;20541;-78
2024/01/17 08:24:15;;;;;;;181.05;137.75;;;308.10;2150.40;;;;;;5072021;28;20021;-81
2024/01/17 08:26:41;;;;;;;185.38;134.38;;;358.50;2022.40;;;;;;5070780;28;20097;-80
2024/01/17 08:29:08;;;;;;;178.50;129.30;;;307.40;2099.20;;;;;;5090221;28;20024;-81
2024/01/17 08:31:34;;;;;;;264.67;182.80;;;256.00;2227.20;;;;;;5089873;28;20081;-82
2024/01/17 08:34:00;;;;;;;375.58;258.92;;;230.50;2252.80;;;;;;5090869;28;20118;-78
2024/01/17 08:36:30;;;;;;;229.60;167.10;;;205.70;2252.80;;;;;;5091137;28;20090;-81
2024/01/17 08:38:57;;;;;;;250.00;170.73;;;205.00;2252.80;;;;;;5084480;28;20028;-82
2024/01/17 08:41:23;;;;;;;312.60;210.50;;;205.00;2252.80;;;;;;5084176;28;20024;-73
2024/01/17 08:43:49;;;;;;;334.67;224.00;;;180.10;2252.80;;;;;;5090618;28;20532;-72
2024/01/17 08:46:15;;;;;;;409.40;281.45;;;180.10;2252.80;;;;;;5077734;28;20131;-72
2024/01/17 08:48:41;;;;;;;303.40;202.35;;;180.10;2252.80;;;;;;5076998;28;20023;-78
2024/01/17 08:51:08;;;;;;;257.60;168.98;;;179.90;2252.80;;;;;;5077667;28;20025;-78
2024/01/17 08:53:37;;;;;;;437.35;254.13;;;179.70;2252.80;;;;;;5077625;28;20043;-72
2024/01/17 08:56:05;;;;;;;386.65;228.85;;;179.60;2252.80;;;;;;5090519;28;20036;-82
2024/01/17 08:58:31;;;;;;;494.13;316.67;;;179.70;2252.80;;;;;;5090760;28;20024;-82
2024/01/17 09:00:57;;;;;;;307.58;207.15;;;179.70;2252.80;;;;;;5090866;28;20034;-82
2024/01/17 09:03:23;;;;;;;271.63;187.77;;;179.90;2252.80;;;;;;5090353;28;20048;-79
2024/01/17 09:05:48;;;;;;;256.77;169.05;;;179.70;2252.80;;;;;;5075791;28;20036;-76
2024/01/17 09:08:14;;;;;;;265.95;171.32;;;179.80;2252.80;;;;;;5068941;28;20402;-81
2024/01/17 09:10:40;;;;;;;280.50;190.98;;;180.10;2252.80;;;;;;5070142;28;20470;-75
2024/01/17 09:13:06;;;;;;;257.48;188.48;;;205.00;2252.80;;;;;;5070440;28;20430;-76
2024/01/17 09:15:32;;;;;;;405.02;270.98;;;205.70;2252.80;;;;;;5069909;28;20067;-72
2024/01/17 09:17:58;;;;;;;335.52;236.80;;;256.40;2252.80;;;;;;5070209;28;20052;-72
2024/01/17 09:20:24;;;;;;;309.52;221.68;;;282.10;2278.40;;;;;;5082115;28;20461;-71
2024/01/17 09:22:50;;;;;;;286.60;215.15;;;281.80;2278.40;;;;;;5082682;28;20029;-75
2024/01/17 09:25:17;;;;;;;296.52;224.45;;;281.90;2278.40;;;;;;5074151;28;20071;-74
2024/01/17 09:27:43;;;;;;;329.92;249.13;;;256.60;2252.80;;;;;;5082260;28;20136;-72
2024/01/17 09:30:09;;;;;;;311.20;231.02;;;256.20;2252.80;;;;;;5082980;28;20054;-77
2024/01/17 09:32:37;;;;;;;315.92;233.98;;;256.00;2252.80;;;;;;5076368;28;20442;-71
2024/01/17 09:35:03;;;;;;;346.75;261.55;;;256.20;2252.80;;;;;;5085437;28;20036;-72
2024/01/17 09:37:29;;;;;;;618.80;433.52;;;281.70;2278.40;;;;;;5084395;28;20020;-72
2024/01/17 09:39:55;;;;;;;434.42;333.95;;;282.10;2278.40;;;;;;5079522;28;20070;-72
2024/01/17 09:42:22;;;;;;;412.52;313.35;;;308.10;2227.20;;;;;;5069471;28;20477;-73
2024/01/17 09:44:48;;;;;;;358.70;283.20;;;358.70;2124.80;;;;;;5081095;28;20438;-72
2024/01/17 09:47:18;;;;;;;326.48;263.27;;;359.10;2022.40;;;;;;5077132;28;20393;-79
2024/01/17 09:49:44;;;;;;;310.13;263.20;;;359.20;1996.80;;;;;;5076951;28;20016;-77
2024/01/17 09:52:13;;;;;;;393.50;315.10;;;359.00;2022.40;;;;;;5075386;28;20047;-80
2024/01/17 09:54:43;;;;;;;363.60;295.85;;;359.10;2048.00;;;;;;5077125;28;20012;-82
2024/01/17 09:57:17;;;;;;;331.17;269.02;;;384.40;1996.80;;;;;;5074427;28;20027;-79
2024/01/17 09:59:50;;;;;;;323.10;265.38;;;384.50;1945.60;;;;;;5084503;28;20055;-82
2024/01/17 10:02:17;;;;;;;302.60;242.07;;;384.20;1971.20;;;;;;5087096;28;20028;-82
2024/01/17 10:04:43;;;;;;;304.08;244.93;;;359.10;2022.40;;;;;;5088298;28;20050;-72
2024/01/17 10:07:09;;;;;;;316.27;254.73;;;358.40;2048.00;;;;;;5088546;28;20038;-74
2024/01/17 10:09:35;;;;;;;313.08;255.98;;;333.20;2099.20;;;;;;5087726;28;20019;-78
2024/01/17 10:12:03;;;;;;;320.83;261.80;;;332.90;2150.40;;;;;;5089331;28;20070;-78
2024/01/17 10:14:28;;;;;;;371.20;290.42;;;332.80;2176.00;;;;;;5079225;28;20368;-73
2024/01/17 10:16:54;;;;;;;482.45;381.27;;;308.00;2176.00;;;;;;5079145;28;20093;-83
2024/01/17 10:19:20;;;;;;;459.58;353.35;;;307.80;2227.20;;;;;;5070093;28;20020;-83
2024/01/17 10:21:48;;;;;;;338.38;264.40;;;307.70;2252.80;;;;;;5081837;28;20549;-79
2024/01/17 10:24:14;;;;;;;363.92;284.55;;;307.80;2252.80;;;;;;5071583;28;20070;-78
2024/01/17 10:26:44;;;;;;;254.13;201.13;;;307.90;2252.80;;;;;;5083704;28;20042;-85
2024/01/17 10:29:13;;;;;;;299.33;236.07;;;308.00;2252.80;;;;;;5084714;28;20082;-76
2024/01/17 10:31:39;;;;;;;221.65;180.20;;;332.80;2278.40;;;;;;5072729;28;20502;-73
2024/01/17 10:34:05;;;;;;;177.93;142.30;;;332.80;2304.00;;;;;;5075434;28;20031;-72
2024/01/17 10:36:31;;;;;;;219.02;166.63;;;308.00;2278.40;;;;;;5073896;28;20037;-71
2024/01/17 10:39:06;;;;;;;388.73;294.00;;;307.90;2304.00;;;;;;5078772;28;20043;-74
2024/01/17 10:41:32;;;;;;;250.40;189.48;;;307.80;2304.00;;;;;;5075488;28;20013;-76
2024/01/17 10:44:04;;;;;;;260.48;198.68;;;307.80;2304.00;;;;;;5077200;28;20387;-75
2024/01/17 10:46:30;;;;;;;253.85;204.38;;;307.90;2304.00;;;;;;5080129;28;20111;-79
2024/01/17 10:48:58;;;;;;;287.02;231.00;;;308.10;2304.00;;;;;;5073985;28;20050;-81
2024/01/17 10:51:24;;;;;;;263.83;187.70;;;308.10;2304.00;;;;;;5086699;28;20032;-74
2024/01/17 10:53:56;;;;;;;277.05;207.90;;;332.90;2329.60;;;;;;5078696;28;20065;-79
2024/01/17 10:56:22;;;;;;;235.15;179.52;;;308.10;2304.00;;;;;;5074015;28;20024;-79
2024/01/17 10:58:53;;;;;;;252.63;198.25;;;308.10;2304.00;;;;;;5072515;28;20033;-79
2024/01/17 11:01:35;;;;;;;190.75;131.07;;;308.00;2304.00;;;;;;5077793;28;20019;-71
2024/01/17 11:04:28;;;;;;;162.00;110.85;;;332.90;2329.60;;;;;;5072826;28;20044;-79
2024/01/17 11:06:54;;;;;;;226.18;189.43;;;333.20;2329.60;;;;;;5025297;28;20156;-78
2024/01/17 11:09:22;;;;;;;239.48;184.52;;;333.20;2329.60;;;;;;5024776;28;20045;-71
2024/01/17 11:11:49;;;;;;;79.50;55.65;;;333.20;2329.60;;;;;;5025589;28;20048;-78
2024/01/17 11:14:17;;;;;;;63.08;46.72;;;333.30;2329.60;;;;;;5025391;28;20387;-71
2024/01/17 11:16:48;;;;;;;157.02;119.97;;;333.50;2329.60;;;;;;5025476;28;20501;-71
2024/01/17 11:19:16;;;;;;;189.15;143.25;;;333.30;2329.60;;;;;;5008630;28;20125;-71
2024/01/17 11:21:43;;;;;;;209.95;159.90;;;332.90;2329.60;;;;;;5025298;28;20025;-71
2024/01/17 11:24:36;;;;;;;265.13;200.55;;;308.10;2304.00;;;;;;5025104;28;20042;-70
2024/01/17 11:27:09;;;;;;;276.75;212.35;;;308.10;2304.00;;;;;;5024505;28;20459;-72
2024/01/17 11:29:41;;;;;;;268.88;201.55;;;308.00;2304.00;;;;;;5024914;28;20047;-76
2024/01/17 11:32:35;;;;;;;218.15;164.07;;;308.10;2304.00;;;;;;5022061;28;20038;-71
2024/01/17 11:35:01;;;;;;;282.17;214.85;;;332.80;2329.60;;;;;;5024902;28;20033;-73
2024/01/17 11:37:33;;;;;;;140.02;104.88;;;333.00;2329.60;;;;;;5025346;28;20025;-71
2024/01/17 11:40:00;;;;;;;98.78;79.50;;;333.30;2329.60;;;;;;5008890;28;20045;-72
2024/01/17 11:42:26;;;;;;;103.43;74.68;;;333.60;2329.60;;;;;;5024801;28;20166;-73
2024/01/17 11:44:53;;;;;;;50.38;33.03;;;358.50;2329.60;;;;;;5077861;28;20085;-77
2024/01/17 11:47:20;;;;;;;49.00;32.22;;;358.70;2304.00;;;;;;5084972;28;20032;-73
2024/01/17 11:49:46;;;;;;;68.97;54.67;;;359.00;2227.20;;;;;;5078049;28;20077;-78
2024/01/17 11:52:28;;;;;;;45.65;41.15;;;359.10;2278.40;;;;;;5077589;28;20224;-74
2024/01/17 11:54:55;;;;;;;25.98;20.85;;;359.30;2201.60;;;;;;5074417;28;20467;-76
2024/01/17 11:57:21;;;;;;;26.38;19.60;;;384.00;2227.20;;;;;;5083553;28;20374;-72